createdAt,value
2018-05-16T00:00:41.966Z,35.40
2018-05-16T00:03:10.648Z,35.60
2018-05-16T00:05:39.111Z,35.60
2018-05-16T00:08:07.394Z,35.60
2018-05-16T00:10:35.690Z,35.60
2018-05-16T00:13:04.386Z,35.60
2018-05-16T00:15:33.355Z,35.40
2018-05-16T00:18:01.638Z,35.40
2018-05-16T00:20:29.929Z,35.40
2018-05-16T00:22:58.620Z,35.40
2018-05-16T00:25:27.301Z,35.30
2018-05-16T00:27:56.023Z,35.30
2018-05-16T00:30:24.301Z,35.30
2018-05-16T00:32:52.593Z,35.40
2018-05-16T00:35:20.906Z,35.40
2018-05-16T00:37:49.170Z,35.00
2018-05-16T00:40:17.445Z,34.80
2018-05-16T00:42:45.794Z,34.70
2018-05-16T00:45:14.407Z,34.80
2018-05-16T00:47:42.695Z,35.00
2018-05-16T00:50:10.993Z,35.10
2018-05-16T00:52:39.278Z,35.40
2018-05-16T00:55:07.817Z,35.40
2018-05-16T00:57:36.150Z,35.60
2018-05-16T01:00:04.444Z,35.70
2018-05-16T01:02:32.737Z,35.70
2018-05-16T01:05:01.049Z,35.90
2018-05-16T01:07:29.725Z,36.00
2018-05-16T01:09:58.019Z,36.20
2018-05-16T01:12:26.336Z,36.20
2018-05-16T01:14:54.625Z,36.30
2018-05-16T01:17:22.897Z,36.50
2018-05-16T01:19:51.205Z,36.30
2018-05-16T01:22:19.478Z,36.60
2018-05-16T01:24:47.757Z,36.50
2018-05-16T01:27:16.062Z,36.60
2018-05-16T01:29:44.349Z,36.60
2018-05-16T01:32:12.659Z,36.90
2018-05-16T01:34:40.959Z,36.90
2018-05-16T01:37:09.243Z,36.90
2018-05-16T01:39:37.510Z,36.90
2018-05-16T01:42:05.796Z,37.10
2018-05-16T01:44:34.065Z,37.10
2018-05-16T01:47:02.662Z,37.20
2018-05-16T01:49:31.364Z,37.40
2018-05-16T01:51:59.665Z,37.20
2018-05-16T01:54:27.946Z,37.40
2018-05-16T01:56:56.276Z,37.40
2018-05-16T01:59:25.170Z,37.40
2018-05-16T02:01:53.896Z,37.50
2018-05-16T02:04:22.519Z,37.50
2018-05-16T02:06:50.809Z,37.50
2018-05-16T02:09:19.375Z,37.60
2018-05-16T02:11:47.705Z,37.50
2018-05-16T02:14:15.988Z,37.60
2018-05-16T02:16:44.257Z,37.60
2018-05-16T02:19:12.570Z,37.60
2018-05-16T02:21:40.948Z,37.60
2018-05-16T02:24:09.327Z,37.60
2018-05-16T02:26:37.920Z,37.60
2018-05-16T02:29:06.201Z,37.60
2018-05-16T02:31:34.474Z,37.60
2018-05-16T02:34:02.785Z,37.80
2018-05-16T02:36:31.068Z,37.60
2018-05-16T02:38:59.343Z,37.80
2018-05-16T02:41:27.767Z,37.60
2018-05-16T02:43:56.084Z,37.60
2018-05-16T02:46:24.775Z,37.80
2018-05-16T02:48:53.473Z,37.60
2018-05-16T02:51:21.794Z,37.60
2018-05-16T02:53:50.085Z,37.60
2018-05-16T02:56:18.389Z,37.80
2018-05-16T02:58:47.062Z,37.90
2018-05-16T03:01:15.332Z,37.90
2018-05-16T03:03:43.646Z,37.80
2018-05-16T03:06:11.925Z,37.90
2018-05-16T03:08:40.200Z,37.90
2018-05-16T03:11:08.480Z,38.10
2018-05-16T03:13:36.758Z,38.10
2018-05-16T03:16:05.030Z,37.90
2018-05-16T03:18:33.361Z,38.10
2018-05-16T03:21:01.942Z,38.10
2018-05-16T03:23:30.225Z,38.10
2018-05-16T03:25:58.523Z,37.90
2018-05-16T03:28:27.192Z,37.90
2018-05-16T03:30:55.479Z,38.10
2018-05-16T03:33:23.858Z,38.10
2018-05-16T03:35:52.109Z,38.10
2018-05-16T03:38:20.404Z,38.20
2018-05-16T03:40:49.146Z,38.40
2018-05-16T03:43:17.430Z,38.40
2018-05-16T03:45:45.714Z,38.20
2018-05-16T03:48:14.021Z,38.40
2018-05-16T03:50:42.702Z,38.40
2018-05-16T03:53:10.982Z,38.40
2018-05-16T03:55:39.686Z,38.50
2018-05-16T03:58:20.707Z,38.50
2018-05-16T04:04:23.213Z,38.40
2018-05-16T04:06:51.556Z,38.50
2018-05-16T04:09:19.854Z,38.50
2018-05-16T04:11:48.150Z,38.70
2018-05-16T04:14:16.483Z,38.80
2018-05-16T04:16:45.419Z,38.70
2018-05-16T04:19:13.712Z,38.70
2018-05-16T04:21:42.075Z,38.50
2018-05-16T04:24:10.360Z,38.50
2018-05-16T04:26:38.939Z,38.70
2018-05-16T04:29:07.239Z,38.70
2018-05-16T04:31:36.212Z,38.70
2018-05-16T04:34:04.496Z,38.70
2018-05-16T04:36:33.254Z,38.70
2018-05-16T04:39:01.568Z,38.70
2018-05-16T04:41:30.547Z,38.80
2018-05-16T04:43:58.885Z,38.80
2018-05-16T04:46:27.182Z,38.70
2018-05-16T04:48:55.559Z,38.80
2018-05-16T04:51:23.935Z,39.00
2018-05-16T04:53:52.208Z,39.00
2018-05-16T04:56:20.488Z,39.00
2018-05-16T04:58:48.804Z,39.00
2018-05-16T05:01:17.497Z,39.00
2018-05-16T05:03:46.475Z,39.00
2018-05-16T05:06:14.830Z,39.00
2018-05-16T05:08:43.127Z,39.10
2018-05-16T05:11:11.884Z,39.10
2018-05-16T05:13:40.179Z,39.10
2018-05-16T05:16:08.640Z,39.10
2018-05-16T05:18:37.009Z,39.30
2018-05-16T05:21:05.317Z,39.00
2018-05-16T05:23:33.620Z,38.70
2018-05-16T05:26:02.298Z,38.10
2018-05-16T05:28:30.683Z,38.10
2018-05-16T05:30:58.928Z,37.90
2018-05-16T05:33:27.509Z,37.80
2018-05-16T05:35:55.824Z,37.80
2018-05-16T05:38:24.132Z,37.80
2018-05-16T05:40:52.409Z,39.30
2018-05-16T05:43:20.781Z,39.90
2018-05-16T05:45:49.026Z,39.40
2018-05-16T05:48:17.586Z,38.80
2018-05-16T05:50:45.943Z,38.40
2018-05-16T05:53:14.238Z,38.10
2018-05-16T05:55:42.515Z,37.80
2018-05-16T05:58:10.838Z,37.50
2018-05-16T06:00:39.125Z,37.40
2018-05-16T06:03:07.535Z,37.20
2018-05-16T06:05:35.875Z,36.90
2018-05-16T06:08:04.163Z,36.60
2018-05-16T06:10:32.446Z,36.50
2018-05-16T06:13:00.861Z,36.30
2018-05-16T06:15:29.157Z,36.20
2018-05-16T06:17:57.452Z,36.00
2018-05-16T06:20:26.716Z,35.90
2018-05-16T06:22:55.078Z,35.90
2018-05-16T06:25:23.441Z,35.70
2018-05-16T06:27:52.509Z,35.60
2018-05-16T06:30:21.255Z,35.40
2018-05-16T06:32:49.963Z,35.10
2018-05-16T06:35:18.301Z,35.30
2018-05-16T06:37:46.584Z,35.10
2018-05-16T06:40:14.869Z,35.00
2018-05-16T06:42:43.191Z,35.00
2018-05-16T06:45:11.490Z,35.00
2018-05-16T06:47:39.782Z,35.00
2018-05-16T06:50:08.098Z,35.00
2018-05-16T06:52:36.401Z,34.80
2018-05-16T06:55:04.927Z,34.70
2018-05-16T06:57:33.253Z,34.50
2018-05-16T07:00:01.577Z,34.40
2018-05-16T07:02:29.866Z,34.50
2018-05-16T07:04:58.194Z,34.20
2018-05-16T07:07:26.515Z,34.20
2018-05-16T07:09:55.604Z,34.10
2018-05-16T07:12:24.781Z,34.10
2018-05-16T07:14:53.310Z,34.00
2018-05-16T07:17:21.976Z,33.80
2018-05-16T07:19:50.384Z,33.70
2018-05-16T07:22:18.745Z,33.50
2018-05-16T07:24:47.732Z,33.50
2018-05-16T07:27:16.491Z,33.10
2018-05-16T07:29:44.929Z,33.10
2018-05-16T07:32:13.568Z,32.80
2018-05-16T07:34:41.943Z,32.50
2018-05-16T07:37:10.228Z,32.30
2018-05-16T07:39:38.513Z,32.20
2018-05-16T07:42:06.817Z,31.90
2018-05-16T07:44:35.114Z,31.40
2018-05-16T07:47:03.728Z,31.40
2018-05-16T07:49:32.631Z,31.00
2018-05-16T07:52:00.958Z,31.00
2018-05-16T07:54:29.246Z,30.80
2018-05-16T07:56:57.562Z,30.60
2018-05-16T07:59:25.848Z,30.40
2018-05-16T08:01:54.165Z,30.30
2018-05-16T08:04:22.479Z,29.90
2018-05-16T08:06:50.765Z,29.70
2018-05-16T08:09:19.475Z,29.70
2018-05-16T08:11:48.166Z,29.50
2018-05-16T08:14:16.488Z,29.50
2018-05-16T08:16:44.763Z,29.50
2018-05-16T08:19:13.083Z,29.60
2018-05-16T08:21:41.460Z,29.70
2018-05-16T08:24:09.676Z,29.70
2018-05-16T08:26:38.082Z,29.70
2018-05-16T08:29:06.380Z,29.80
2018-05-16T08:31:34.668Z,29.80
2018-05-16T08:34:03.744Z,29.80
2018-05-16T08:36:32.329Z,29.80
2018-05-16T08:39:00.919Z,29.80
2018-05-16T08:41:29.638Z,29.90
2018-05-16T08:43:57.961Z,29.90
2018-05-16T08:46:26.243Z,29.70
2018-05-16T08:48:54.521Z,29.60
2018-05-16T08:51:22.816Z,29.40
2018-05-16T08:53:51.499Z,29.20
2018-05-16T08:56:19.829Z,29.10
2018-05-16T08:58:48.352Z,29.00
2018-05-16T09:01:16.731Z,29.00
2018-05-16T09:03:45.016Z,28.80
2018-05-16T09:06:13.698Z,28.60
2018-05-16T09:08:42.712Z,28.60
2018-05-16T09:11:11.694Z,28.70
2018-05-16T09:13:40.210Z,28.60
2018-05-16T09:16:08.685Z,28.40
2018-05-16T09:18:37.321Z,28.40
2018-05-16T09:21:05.608Z,28.30
2018-05-16T09:23:33.884Z,28.20
2018-05-16T09:26:03.009Z,28.00
2018-05-16T09:28:31.993Z,27.70
2018-05-16T09:31:00.293Z,27.50
2018-05-16T09:33:28.588Z,27.30
2018-05-16T09:35:56.894Z,27.10
2018-05-16T09:38:25.256Z,26.90
2018-05-16T09:40:53.677Z,26.70
2018-05-16T09:43:22.368Z,26.30
2018-05-16T09:45:51.124Z,26.10
2018-05-16T09:48:19.769Z,26.00
2018-05-16T09:50:48.050Z,25.90
2018-05-16T09:53:16.334Z,25.90
2018-05-16T09:55:44.618Z,25.90
2018-05-16T09:58:12.892Z,25.80
2018-05-16T10:00:41.181Z,25.90
2018-05-16T10:03:09.594Z,26.10
2018-05-16T10:05:38.034Z,26.00
2018-05-16T10:08:06.762Z,26.20
2018-05-16T10:10:35.471Z,26.30
2018-05-16T10:13:03.758Z,26.30
2018-05-16T10:15:32.060Z,26.40
2018-05-16T10:18:00.661Z,26.40
2018-05-16T10:20:29.147Z,26.20
2018-05-16T10:22:57.501Z,26.20
2018-05-16T10:25:25.802Z,26.10
2018-05-16T10:27:54.219Z,25.70
2018-05-16T10:30:22.533Z,26.00
2018-05-16T10:32:50.872Z,25.60
2018-05-16T10:35:19.140Z,25.90
2018-05-16T10:37:47.815Z,25.90
2018-05-16T10:40:16.534Z,25.80
2018-05-16T10:42:44.817Z,25.80
2018-05-16T10:45:13.081Z,25.70
2018-05-16T10:47:41.402Z,25.30
2018-05-16T10:50:09.770Z,25.20
2018-05-16T10:52:38.863Z,25.10
2018-05-16T10:55:07.188Z,25.00
2018-05-16T10:57:35.503Z,25.10
2018-05-16T11:00:03.785Z,25.00
2018-05-16T11:02:32.190Z,24.70
2018-05-16T11:05:00.459Z,24.60
2018-05-16T11:07:28.730Z,24.60
2018-05-16T11:09:57.037Z,24.60
2018-05-16T11:12:25.712Z,24.20
2018-05-16T11:14:54.281Z,24.20
2018-05-16T11:17:22.609Z,24.20
2018-05-16T11:19:51.029Z,24.10
2018-05-16T11:22:19.299Z,24.00
2018-05-16T11:24:48.009Z,23.90
2018-05-16T11:27:16.703Z,23.70
2018-05-16T11:29:45.057Z,23.70
2018-05-16T11:32:13.329Z,23.50
2018-05-16T11:34:41.706Z,23.70
2018-05-16T11:37:10.033Z,23.60
2018-05-16T11:39:38.487Z,23.40
2018-05-16T11:42:06.943Z,23.40
2018-05-16T11:44:35.226Z,23.30
2018-05-16T11:49:31.162Z,23.10
2018-05-16T11:51:59.457Z,23.10
2018-05-16T11:54:27.749Z,22.90
2018-05-16T11:56:56.426Z,22.80
2018-05-16T11:59:24.711Z,22.80
2018-05-16T12:01:53.386Z,22.70
2018-05-16T12:04:22.064Z,22.50
2018-05-16T12:06:50.332Z,22.50
2018-05-16T12:09:18.767Z,22.20
2018-05-16T12:11:46.946Z,22.20
2018-05-16T12:14:15.221Z,22.30
2018-05-16T12:16:43.666Z,22.40
2018-05-16T12:19:12.369Z,22.10
2018-05-16T12:21:41.121Z,22.30
2018-05-16T12:24:09.382Z,22.30
2018-05-16T12:26:37.690Z,22.30
2018-05-16T12:29:06.463Z,22.40
2018-05-16T12:31:35.081Z,22.30
2018-05-16T12:34:03.747Z,22.10
2018-05-16T12:36:32.440Z,22.30
2018-05-16T12:39:01.413Z,21.80
2018-05-16T12:41:30.113Z,22.10
2018-05-16T12:43:58.802Z,22.10
2018-05-16T12:46:27.654Z,21.80
2018-05-16T12:48:55.923Z,21.80
2018-05-16T12:51:24.195Z,22.20
2018-05-16T12:53:52.531Z,22.20
2018-05-16T12:56:20.798Z,22.40
2018-05-16T12:58:49.462Z,21.90
2018-05-16T13:01:17.770Z,21.90
2018-05-16T13:03:46.200Z,22.30
2018-05-16T13:06:14.517Z,22.50
2018-05-16T13:08:43.209Z,23.00
2018-05-16T13:11:12.144Z,23.00
2018-05-16T13:13:40.751Z,23.00
2018-05-16T13:16:09.062Z,22.80
2018-05-16T13:18:37.424Z,22.80
2018-05-16T13:21:06.126Z,23.00
2018-05-16T13:23:35.088Z,22.80
2018-05-16T13:26:03.800Z,22.90
2018-05-16T13:28:32.110Z,22.90
2018-05-16T13:31:00.417Z,22.90
2018-05-16T13:33:28.789Z,22.80
2018-05-16T13:35:57.125Z,22.50
2018-05-16T13:38:25.509Z,23.10
2018-05-16T13:40:53.922Z,22.80
2018-05-16T13:43:22.305Z,22.50
2018-05-16T13:45:50.683Z,22.80
2018-05-16T13:48:18.992Z,22.80
2018-05-16T13:50:47.665Z,22.80
2018-05-16T13:53:16.064Z,22.80
2018-05-16T13:55:44.745Z,22.50
2018-05-16T13:58:13.430Z,22.40
2018-05-16T14:00:42.136Z,22.40
2018-05-16T14:03:10.436Z,22.40
2018-05-16T14:05:38.729Z,22.60
2018-05-16T14:08:07.330Z,22.60
2018-05-16T14:10:35.691Z,22.60
2018-05-16T14:13:04.108Z,22.70
2018-05-16T14:15:33.781Z,22.90
2018-05-16T14:18:02.383Z,22.90
2018-05-16T14:20:30.675Z,23.00
2018-05-16T14:22:59.444Z,23.00
2018-05-16T14:25:27.734Z,23.10
2018-05-16T14:27:56.459Z,23.20
2018-05-16T14:30:24.763Z,23.20
2018-05-16T14:32:53.085Z,23.10
2018-05-16T14:35:21.782Z,23.10
2018-05-16T14:37:50.621Z,23.20
2018-05-16T14:40:18.904Z,23.20
2018-05-16T14:42:47.254Z,23.20
2018-05-16T14:45:15.904Z,23.40
2018-05-16T14:47:44.585Z,23.50
2018-05-16T14:50:13.264Z,23.60
2018-05-16T14:52:41.571Z,23.60
2018-05-16T14:55:09.842Z,23.60
2018-05-16T14:57:38.134Z,23.50
2018-05-16T15:00:12.170Z,23.60
2018-05-16T15:02:40.769Z,23.60
2018-05-16T15:05:09.076Z,23.80
2018-05-16T15:07:37.431Z,23.70
2018-05-16T15:10:06.005Z,23.80
2018-05-16T15:12:34.376Z,23.80
2018-05-16T15:15:02.678Z,23.80
2018-05-16T15:17:30.962Z,24.00
2018-05-16T15:19:59.625Z,24.00
2018-05-16T15:22:27.954Z,24.00
2018-05-16T15:24:56.264Z,24.10
2018-05-16T15:27:24.957Z,24.20
2018-05-16T15:29:53.595Z,24.40
2018-05-16T15:32:21.907Z,24.50
2018-05-16T15:34:50.217Z,24.40
2018-05-16T15:37:18.925Z,24.60
2018-05-16T15:39:47.234Z,24.60
2018-05-16T15:42:15.544Z,24.60
2018-05-16T15:44:43.855Z,24.70
2018-05-16T15:47:12.405Z,24.70
2018-05-16T15:49:40.688Z,24.90
2018-05-16T15:52:09.681Z,24.90
2018-05-16T15:54:38.262Z,24.90
2018-05-16T15:57:06.531Z,25.00
2018-05-16T15:59:34.904Z,25.10
2018-05-16T16:02:03.147Z,25.20
2018-05-16T16:04:31.443Z,25.30
2018-05-16T16:06:59.800Z,25.40
2018-05-16T16:09:28.081Z,25.50
2018-05-16T16:11:56.479Z,25.60
2018-05-16T16:14:25.097Z,25.80
2018-05-16T16:16:53.439Z,25.90
2018-05-16T16:19:21.712Z,26.00
2018-05-16T16:21:50.026Z,26.20
2018-05-16T16:24:18.727Z,26.30
2018-05-16T16:26:47.057Z,26.30
2018-05-16T16:29:15.435Z,26.30
2018-05-16T16:31:43.833Z,26.30
2018-05-16T16:34:12.106Z,26.50
2018-05-16T16:36:40.840Z,26.50
2018-05-16T16:39:09.197Z,26.50
2018-05-16T16:41:37.505Z,26.50
2018-05-16T16:44:05.809Z,26.50
2018-05-16T16:46:34.514Z,26.60
2018-05-16T16:49:02.796Z,26.70
2018-05-16T16:51:31.153Z,26.70
2018-05-16T16:53:59.431Z,26.70
2018-05-16T16:56:27.715Z,26.80
2018-05-16T16:58:56.312Z,26.80
2018-05-16T17:01:25.104Z,26.80
2018-05-16T17:03:54.100Z,26.90
2018-05-16T17:06:22.887Z,27.00
2018-05-16T17:08:51.181Z,27.00
2018-05-16T17:11:19.529Z,27.20
2018-05-16T17:13:48.006Z,27.20
2018-05-16T17:16:16.291Z,27.30
2018-05-16T17:18:44.556Z,27.30
2018-05-16T17:21:12.892Z,27.30
2018-05-16T17:23:41.205Z,27.40
2018-05-16T17:26:09.492Z,27.40
2018-05-16T17:28:38.308Z,27.50
2018-05-16T17:31:07.005Z,27.60
2018-05-16T17:33:35.426Z,27.60
2018-05-16T17:36:03.765Z,27.60
2018-05-16T17:38:32.054Z,27.70
2018-05-16T17:41:00.583Z,27.80
2018-05-16T17:43:28.919Z,27.80
2018-05-16T17:45:57.284Z,27.90
2018-05-16T17:48:25.653Z,27.90
2018-05-16T17:50:54.043Z,28.00
2018-05-16T17:53:22.351Z,28.00
2018-05-16T17:55:50.666Z,28.10
2018-05-16T17:58:19.352Z,28.30
2018-05-16T18:00:47.679Z,28.30
2018-05-16T18:03:16.290Z,28.40
2018-05-16T18:05:45.077Z,28.60
2018-05-16T18:08:13.420Z,28.60
2018-05-16T18:10:41.932Z,28.70
2018-05-16T18:16:33.543Z,28.80
2018-05-16T18:19:01.845Z,29.00
2018-05-16T18:21:30.141Z,29.00
2018-05-16T18:23:58.457Z,29.10
2018-05-16T18:26:26.765Z,29.20
2018-05-16T18:28:55.033Z,29.30
2018-05-16T18:31:23.310Z,29.40
2018-05-16T18:33:51.614Z,29.40
2018-05-16T18:36:19.897Z,29.50
2018-05-16T18:38:48.185Z,29.60
2018-05-16T18:41:16.493Z,29.70
2018-05-16T18:43:44.802Z,29.70
2018-05-16T18:46:13.807Z,29.80
2018-05-16T18:48:42.082Z,29.90
2018-05-16T18:51:10.393Z,29.90
2018-05-16T18:53:39.004Z,29.80
2018-05-16T18:56:07.277Z,29.90
2018-05-16T18:58:35.637Z,30.30
2018-05-16T19:01:03.957Z,30.40
2018-05-16T19:03:32.231Z,30.60
2018-05-16T19:06:00.561Z,30.80
2018-05-16T19:08:29.240Z,31.00
2018-05-16T19:11:00.183Z,31.00
2018-05-16T19:13:28.616Z,31.00
2018-05-16T19:15:56.911Z,31.10
2018-05-16T19:18:25.188Z,31.10
2018-05-16T19:20:53.492Z,31.10
2018-05-16T19:23:22.155Z,31.30
2018-05-16T19:25:50.483Z,31.30
2018-05-16T19:28:18.804Z,31.40
2018-05-16T19:30:47.173Z,31.40
2018-05-16T19:33:15.464Z,31.40
2018-05-16T19:35:43.812Z,31.40
2018-05-16T19:38:12.089Z,31.60
2018-05-16T19:40:40.458Z,31.60
2018-05-16T19:43:09.127Z,31.60
2018-05-16T19:45:37.414Z,31.60
2018-05-16T19:48:05.751Z,31.70
2018-05-16T19:50:34.024Z,31.70
2018-05-16T19:53:02.416Z,31.70
2018-05-16T19:55:30.733Z,31.70
2018-05-16T19:57:59.040Z,31.70
2018-05-16T20:00:27.351Z,31.90
2018-05-16T20:02:55.642Z,31.90
2018-05-16T20:05:24.003Z,31.90
2018-05-16T20:07:52.307Z,32.00
2018-05-16T20:10:20.608Z,32.20
2018-05-16T20:12:49.227Z,32.20
2018-05-16T20:15:17.915Z,32.30
2018-05-16T20:17:46.209Z,32.30
2018-05-16T20:20:14.546Z,32.30
2018-05-16T20:22:42.841Z,32.30
2018-05-16T20:25:11.126Z,32.60
2018-05-16T20:27:39.804Z,32.60
2018-05-16T20:30:08.502Z,32.80
2018-05-16T20:32:36.802Z,32.80
2018-05-16T20:35:05.130Z,32.80
2018-05-16T20:37:33.424Z,32.80
2018-05-16T20:40:02.189Z,32.90
2018-05-16T20:42:30.405Z,32.90
2018-05-16T20:44:58.697Z,33.50
2018-05-16T20:47:27.226Z,34.20
2018-05-16T20:49:55.514Z,34.20
2018-05-16T20:52:24.236Z,35.90
2018-05-16T20:54:52.564Z,35.90
2018-05-16T20:57:20.893Z,36.30
2018-05-16T20:59:49.225Z,36.50
2018-05-16T21:02:17.538Z,37.60
2018-05-16T21:04:45.808Z,37.50
2018-05-16T21:07:14.113Z,37.80
2018-05-16T21:09:42.844Z,38.20
2018-05-16T21:12:11.135Z,38.10
2018-05-16T21:14:39.805Z,38.40
2018-05-16T21:17:08.127Z,38.40
2018-05-16T21:19:36.439Z,38.70
2018-05-16T21:22:04.752Z,38.50
2018-05-16T21:24:33.441Z,38.70
2018-05-16T21:27:02.107Z,38.50
2018-05-16T21:29:30.565Z,38.50
2018-05-16T21:31:58.943Z,39.00
2018-05-16T21:34:27.211Z,38.80
2018-05-16T21:36:55.582Z,38.80
2018-05-16T21:39:23.862Z,39.10
2018-05-16T21:41:52.137Z,39.10
2018-05-16T21:44:20.476Z,39.40
2018-05-16T21:46:48.813Z,39.40
2018-05-16T21:49:17.125Z,39.70
2018-05-16T21:51:45.852Z,39.70
2018-05-16T21:54:14.205Z,39.70
2018-05-16T21:56:42.614Z,39.70
2018-05-16T21:59:10.900Z,39.90
2018-05-16T22:01:39.591Z,39.90
2018-05-16T22:04:08.301Z,39.90
2018-05-16T22:06:36.642Z,39.90
2018-05-16T22:09:05.799Z,40.00
2018-05-16T22:11:34.345Z,40.00
2018-05-16T22:14:02.650Z,39.70
2018-05-16T22:16:31.357Z,40.20
2018-05-16T22:18:59.652Z,40.20
2018-05-16T22:21:27.949Z,39.90
2018-05-16T22:23:56.257Z,39.90
2018-05-16T22:26:24.954Z,40.20
2018-05-16T22:28:53.620Z,40.20
2018-05-16T22:31:27.566Z,40.20
2018-05-16T22:34:01.585Z,40.30
2018-05-16T22:36:35.608Z,40.30
2018-05-16T22:39:09.586Z,40.20
2018-05-16T22:41:43.761Z,40.20
2018-05-16T22:44:22.281Z,40.20
2018-05-16T22:46:50.608Z,40.00
2018-05-16T22:49:18.890Z,39.90
2018-05-16T22:51:47.422Z,39.70
2018-05-16T22:54:15.704Z,39.40
2018-05-16T22:56:43.984Z,39.10
2018-05-16T22:59:12.660Z,39.10
2018-05-16T23:01:40.977Z,39.10
2018-05-16T23:04:09.260Z,39.10
2018-05-16T23:06:37.785Z,39.00
2018-05-16T23:09:06.089Z,39.00
2018-05-16T23:11:34.779Z,39.00
2018-05-16T23:14:03.445Z,39.00
2018-05-16T23:16:31.750Z,39.00
2018-05-16T23:19:00.293Z,38.50
2018-05-16T23:21:28.560Z,38.40
2018-05-16T23:23:56.861Z,38.50
2018-05-16T23:26:25.129Z,38.50
2018-05-16T23:28:53.421Z,38.50
2018-05-16T23:31:22.122Z,39.00
2018-05-16T23:33:50.401Z,39.00
2018-05-16T23:36:18.943Z,39.00
2018-05-16T23:38:47.250Z,39.00
2018-05-16T23:41:15.916Z,39.10
2018-05-16T23:43:44.204Z,39.10
2018-05-16T23:46:12.909Z,39.30
2018-05-16T23:48:41.574Z,39.30
2018-05-16T23:51:10.244Z,39.10
2018-05-16T23:53:38.562Z,39.10
2018-05-16T23:56:07.099Z,39.00
2018-05-16T23:58:35.379Z,39.00
